createdAt,value
2017-11-23T00:01:19.574Z,6.80
2017-11-23T00:03:47.703Z,6.70
2017-11-23T00:06:15.859Z,6.70
2017-11-23T00:08:43.995Z,6.70
2017-11-23T00:11:12.148Z,6.60
2017-11-23T00:13:40.278Z,6.60
2017-11-23T00:16:08.430Z,6.60
2017-11-23T00:18:36.562Z,6.60
2017-11-23T00:21:04.728Z,6.50
2017-11-23T00:23:32.869Z,6.60
2017-11-23T00:26:01.022Z,6.50
2017-11-23T00:28:29.158Z,6.50
2017-11-23T00:30:57.322Z,6.50
2017-11-23T00:33:25.455Z,6.50
2017-11-23T00:35:53.591Z,6.50
2017-11-23T00:38:22.514Z,6.50
2017-11-23T00:40:50.648Z,6.50
2017-11-23T00:43:19.567Z,6.50
2017-11-23T00:45:47.695Z,6.50
2017-11-23T00:48:15.851Z,6.40
2017-11-23T00:50:43.979Z,6.40
2017-11-23T00:53:12.138Z,6.40
2017-11-23T00:55:40.266Z,6.40
2017-11-23T00:58:08.427Z,6.40
2017-11-23T01:00:36.559Z,6.40
2017-11-23T01:03:04.718Z,6.40
2017-11-23T01:05:32.843Z,6.40
2017-11-23T01:08:01.001Z,6.40
2017-11-23T01:10:29.135Z,6.40
2017-11-23T01:12:57.294Z,6.40
2017-11-23T01:15:25.426Z,6.30
2017-11-23T01:17:53.578Z,6.30
2017-11-23T01:20:21.710Z,6.30
2017-11-23T01:22:49.876Z,6.30
2017-11-23T01:25:18.020Z,6.30
2017-11-23T01:27:46.187Z,6.40
2017-11-23T01:30:14.320Z,6.40
2017-11-23T01:32:42.480Z,6.40
2017-11-23T01:35:10.612Z,6.40
2017-11-23T01:37:38.772Z,6.30
2017-11-23T01:40:06.904Z,6.40
2017-11-23T01:42:35.061Z,6.30
2017-11-23T01:45:03.196Z,6.30
2017-11-23T01:47:31.359Z,6.30
2017-11-23T01:49:59.495Z,6.30
2017-11-23T01:52:27.655Z,6.30
2017-11-23T01:54:55.810Z,6.40
2017-11-23T01:57:23.939Z,6.40
2017-11-23T01:59:52.948Z,6.40
2017-11-23T02:02:21.083Z,6.40
2017-11-23T02:04:49.244Z,6.40
2017-11-23T02:07:17.379Z,6.40
2017-11-23T02:09:45.539Z,6.40
2017-11-23T02:12:14.428Z,6.50
2017-11-23T02:14:42.586Z,6.40
2017-11-23T02:17:11.489Z,6.50
2017-11-23T02:19:39.642Z,6.50
2017-11-23T02:22:07.778Z,6.50
2017-11-23T02:24:35.934Z,6.50
2017-11-23T02:27:04.067Z,6.50
2017-11-23T02:29:32.221Z,6.60
2017-11-23T02:32:00.347Z,6.50
2017-11-23T02:34:28.506Z,6.50
2017-11-23T02:36:57.406Z,6.50
2017-11-23T02:39:25.570Z,6.50
2017-11-23T02:41:53.700Z,6.50
2017-11-23T02:44:21.844Z,6.50
2017-11-23T02:46:50.018Z,6.60
2017-11-23T02:49:18.151Z,6.50
2017-11-23T02:51:46.307Z,6.50
2017-11-23T02:54:14.435Z,6.50
2017-11-23T02:56:42.635Z,6.50
2017-11-23T02:59:10.762Z,6.40
2017-11-23T03:01:38.910Z,6.40
2017-11-23T03:04:07.043Z,6.40
2017-11-23T03:06:35.198Z,6.40
2017-11-23T03:09:03.332Z,6.30
2017-11-23T03:11:31.482Z,6.30
2017-11-23T03:13:59.619Z,6.20
2017-11-23T03:16:27.786Z,6.20
2017-11-23T03:18:55.917Z,6.10
2017-11-23T03:21:24.069Z,6.10
2017-11-23T03:23:52.205Z,6.10
2017-11-23T03:26:20.365Z,6.10
2017-11-23T03:28:49.255Z,6.10
2017-11-23T03:31:18.272Z,6.10
2017-11-23T03:33:46.398Z,6.10
2017-11-23T03:36:14.556Z,6.10
2017-11-23T03:38:42.684Z,6.10
2017-11-23T03:41:10.848Z,6.10
2017-11-23T03:43:38.980Z,6.00
2017-11-23T03:46:07.154Z,6.00
2017-11-23T03:48:35.300Z,6.00
2017-11-23T03:51:03.433Z,6.00
2017-11-23T03:53:31.583Z,6.10
2017-11-23T03:55:59.706Z,6.10
2017-11-23T03:58:27.862Z,6.10
2017-11-23T04:00:55.990Z,6.10
2017-11-23T04:03:24.155Z,6.10
2017-11-23T04:05:52.280Z,6.20
2017-11-23T04:08:20.430Z,6.20
2017-11-23T04:10:48.545Z,6.30
2017-11-23T04:13:16.698Z,6.30
2017-11-23T04:15:44.816Z,6.40
2017-11-23T04:18:12.974Z,6.40
2017-11-23T04:23:15.639Z,6.50
2017-11-23T04:25:43.766Z,6.50
2017-11-23T04:28:11.926Z,6.60
2017-11-23T04:30:40.042Z,6.60
2017-11-23T04:33:08.963Z,6.60
2017-11-23T04:35:37.082Z,6.70
2017-11-23T04:38:05.235Z,6.70
2017-11-23T04:40:33.360Z,6.80
2017-11-23T04:43:01.502Z,6.80
2017-11-23T04:45:29.627Z,6.90
2017-11-23T04:47:57.748Z,6.90
2017-11-23T04:50:25.894Z,6.90
2017-11-23T04:52:54.014Z,6.90
2017-11-23T04:55:22.157Z,6.90
2017-11-23T04:57:50.292Z,6.90
2017-11-23T05:00:18.444Z,6.80
2017-11-23T05:02:47.328Z,6.90
2017-11-23T05:05:15.470Z,6.90
2017-11-23T05:07:43.593Z,6.90
2017-11-23T05:10:11.753Z,6.90
2017-11-23T05:12:39.870Z,6.90
2017-11-23T05:15:08.018Z,6.90
2017-11-23T05:17:36.143Z,6.90
2017-11-23T05:20:04.292Z,6.90
2017-11-23T05:22:32.410Z,6.90
2017-11-23T05:25:00.562Z,6.90
2017-11-23T05:27:28.704Z,6.90
2017-11-23T05:29:56.855Z,6.80
2017-11-23T05:32:24.987Z,6.80
2017-11-23T05:34:53.142Z,6.90
2017-11-23T05:37:21.263Z,6.90
2017-11-23T05:39:49.386Z,6.90
2017-11-23T05:42:17.530Z,7.00
2017-11-23T05:44:45.659Z,7.00
2017-11-23T05:47:13.806Z,7.00
2017-11-23T05:49:41.935Z,7.00
2017-11-23T05:52:10.082Z,7.00
2017-11-23T05:54:38.208Z,7.00
2017-11-23T05:57:06.363Z,7.10
2017-11-23T05:59:34.482Z,7.00
2017-11-23T06:02:02.636Z,7.00
2017-11-23T06:04:30.765Z,6.90
2017-11-23T06:06:58.928Z,6.90
2017-11-23T06:09:27.047Z,6.90
2017-11-23T06:11:55.195Z,6.90
2017-11-23T06:14:23.326Z,6.90
2017-11-23T06:16:51.478Z,6.90
2017-11-23T06:19:19.604Z,6.90
2017-11-23T06:21:47.762Z,6.90
2017-11-23T06:24:15.883Z,6.90
2017-11-23T06:26:44.032Z,7.00
2017-11-23T06:29:12.160Z,6.90
2017-11-23T06:31:40.306Z,7.00
2017-11-23T06:34:08.553Z,7.10
2017-11-23T06:36:36.706Z,7.10
2017-11-23T06:39:04.852Z,7.20
2017-11-23T06:41:33.018Z,7.20
2017-11-23T06:44:01.414Z,7.20
2017-11-23T06:46:29.546Z,7.20
2017-11-23T06:48:57.702Z,7.20
2017-11-23T06:51:25.827Z,7.30
2017-11-23T06:53:53.978Z,7.40
2017-11-23T06:56:22.107Z,7.40
2017-11-23T06:58:51.038Z,7.40
2017-11-23T07:01:19.156Z,7.40
2017-11-23T07:03:47.309Z,7.50
2017-11-23T07:06:15.427Z,7.50
2017-11-23T07:08:43.579Z,7.50
2017-11-23T07:11:11.712Z,7.50
2017-11-23T07:13:39.855Z,7.50
2017-11-23T07:16:07.973Z,7.50
2017-11-23T07:18:36.124Z,7.50
2017-11-23T07:21:04.250Z,7.50
2017-11-23T07:23:32.405Z,7.50
2017-11-23T07:26:00.522Z,7.50
2017-11-23T07:28:29.462Z,7.60
2017-11-23T07:30:57.590Z,7.60
2017-11-23T07:33:25.754Z,7.60
2017-11-23T07:35:53.874Z,7.60
2017-11-23T07:38:22.018Z,7.60
2017-11-23T07:40:50.143Z,7.60
2017-11-23T07:43:18.300Z,7.60
2017-11-23T07:45:46.415Z,7.70
2017-11-23T07:48:14.689Z,7.70
2017-11-23T07:50:43.689Z,7.70
2017-11-23T07:53:11.842Z,7.70
2017-11-23T07:55:40.004Z,7.80
2017-11-23T07:58:08.126Z,7.80
2017-11-23T08:00:36.455Z,7.80
2017-11-23T08:03:04.579Z,7.80
2017-11-23T08:05:32.735Z,7.80
2017-11-23T08:08:00.862Z,7.80
2017-11-23T08:10:29.015Z,7.80
2017-11-23T08:12:57.133Z,7.80
2017-11-23T08:15:25.278Z,7.90
2017-11-23T08:17:53.407Z,8.00
2017-11-23T08:20:21.579Z,8.00
2017-11-23T08:22:49.695Z,8.00
2017-11-23T08:25:17.845Z,8.10
2017-11-23T08:27:45.970Z,8.20
2017-11-23T08:30:14.883Z,8.20
2017-11-23T08:32:43.018Z,8.20
2017-11-23T08:35:11.165Z,8.30
2017-11-23T08:37:39.291Z,8.30
2017-11-23T08:40:07.438Z,8.30
2017-11-23T08:42:35.553Z,8.30
2017-11-23T08:45:03.721Z,8.30
2017-11-23T08:47:32.603Z,8.30
2017-11-23T08:50:00.752Z,8.30
2017-11-23T08:52:33.727Z,8.30
2017-11-23T08:55:01.872Z,8.30
2017-11-23T08:57:29.992Z,8.30
2017-11-23T08:59:58.142Z,8.40
2017-11-23T09:02:26.270Z,8.40
2017-11-23T09:04:54.409Z,8.50
2017-11-23T09:07:22.535Z,8.50
2017-11-23T09:09:50.690Z,8.60
2017-11-23T09:12:21.618Z,8.60
2017-11-23T09:14:49.766Z,8.70
2017-11-23T09:17:17.890Z,8.70
2017-11-23T09:19:46.045Z,8.80
2017-11-23T09:22:14.165Z,8.80
2017-11-23T09:24:42.314Z,8.90
2017-11-23T09:27:10.434Z,8.90
2017-11-23T09:29:39.368Z,8.90
2017-11-23T09:32:07.499Z,8.90
2017-11-23T09:34:35.655Z,8.90
2017-11-23T09:37:03.777Z,9.00
2017-11-23T09:39:32.006Z,9.00
2017-11-23T09:42:00.131Z,9.00
2017-11-23T09:44:28.299Z,9.10
2017-11-23T09:46:56.476Z,9.20
2017-11-23T09:49:24.631Z,9.20
2017-11-23T09:51:53.527Z,9.30
2017-11-23T09:54:21.675Z,9.30
2017-11-23T09:56:49.804Z,9.40
2017-11-23T09:59:17.975Z,9.40
2017-11-23T10:01:46.099Z,9.50
2017-11-23T10:04:14.297Z,9.50
2017-11-23T10:06:42.417Z,9.60
2017-11-23T10:09:10.550Z,9.70
2017-11-23T10:11:38.697Z,9.70
2017-11-23T10:14:12.516Z,9.70
2017-11-23T10:16:40.667Z,9.80
2017-11-23T10:19:08.786Z,9.90
2017-11-23T10:21:37.246Z,10.00
2017-11-23T10:24:05.395Z,10.20
2017-11-23T10:26:33.554Z,10.30
2017-11-23T10:29:01.693Z,10.40
2017-11-23T10:31:29.848Z,10.40
2017-11-23T10:33:57.988Z,10.40
2017-11-23T10:36:26.151Z,10.40
2017-11-23T10:38:54.289Z,10.40
2017-11-23T10:41:22.739Z,10.40
2017-11-23T10:43:50.876Z,10.50
2017-11-23T10:46:19.052Z,10.50
2017-11-23T10:48:47.186Z,10.60
2017-11-23T10:51:15.359Z,10.60
2017-11-23T10:53:43.498Z,10.60
2017-11-23T10:56:12.456Z,10.60
2017-11-23T10:58:40.574Z,10.60
2017-11-23T11:01:08.746Z,10.60
2017-11-23T11:03:36.874Z,10.60
2017-11-23T11:06:05.047Z,10.50
2017-11-23T11:08:33.224Z,10.50
2017-11-23T11:11:01.402Z,10.50
2017-11-23T11:13:29.526Z,10.40
2017-11-23T11:15:57.679Z,10.50
2017-11-23T11:18:25.805Z,10.50
2017-11-23T11:20:53.986Z,10.50
2017-11-23T11:23:22.128Z,10.60
2017-11-23T11:25:50.272Z,10.50
2017-11-23T11:28:18.504Z,10.50
2017-11-23T11:30:46.695Z,10.50
2017-11-23T11:33:14.891Z,10.50
2017-11-23T11:35:43.042Z,10.50
2017-11-23T11:38:11.197Z,10.40
2017-11-23T11:40:39.338Z,10.40
2017-11-23T11:43:07.904Z,10.40
2017-11-23T11:45:36.801Z,10.40
2017-11-23T11:48:04.972Z,10.40
2017-11-23T11:50:33.863Z,10.60
2017-11-23T11:53:02.024Z,10.50
2017-11-23T11:55:31.027Z,10.70
2017-11-23T12:00:34.215Z,10.80
2017-11-23T12:03:02.374Z,10.80
2017-11-23T12:05:30.512Z,10.90
2017-11-23T12:07:58.678Z,10.90
2017-11-23T12:10:26.806Z,11.00
2017-11-23T12:12:55.744Z,11.30
2017-11-23T12:15:33.707Z,11.20
2017-11-23T12:18:14.459Z,11.40
2017-11-23T12:20:54.334Z,11.40
2017-11-23T12:23:34.330Z,11.50
2017-11-23T12:26:02.464Z,11.50
2017-11-23T12:28:42.410Z,11.50
2017-11-23T12:31:10.537Z,11.50
2017-11-23T12:33:38.692Z,11.50
2017-11-23T12:36:06.815Z,11.60
2017-11-23T12:38:34.968Z,11.60
2017-11-23T12:41:03.096Z,11.70
2017-11-23T12:43:31.252Z,11.70
2017-11-23T12:45:59.391Z,11.70
2017-11-23T12:48:27.547Z,11.80
2017-11-23T12:50:55.691Z,11.80
2017-11-23T12:53:23.846Z,11.90
2017-11-23T12:55:51.982Z,12.00
2017-11-23T12:58:20.141Z,12.10
2017-11-23T13:00:48.272Z,12.10
2017-11-23T13:03:16.436Z,12.20
2017-11-23T13:05:45.326Z,12.20
2017-11-23T13:08:13.482Z,12.20
2017-11-23T13:10:41.620Z,12.20
2017-11-23T13:13:09.783Z,12.20
2017-11-23T13:15:37.950Z,12.20
2017-11-23T13:18:06.075Z,12.20
2017-11-23T13:20:34.239Z,12.30
2017-11-23T13:23:02.363Z,12.40
2017-11-23T13:25:30.530Z,12.40
2017-11-23T13:27:58.658Z,12.50
2017-11-23T13:30:26.821Z,12.50
2017-11-23T13:32:54.947Z,12.50
2017-11-23T13:35:23.101Z,12.40
2017-11-23T13:37:51.231Z,12.40
2017-11-23T13:40:19.385Z,12.40
2017-11-23T13:42:47.507Z,12.30
2017-11-23T13:45:15.666Z,12.30
2017-11-23T13:47:43.798Z,12.30
2017-11-23T13:50:11.953Z,12.30
2017-11-23T13:52:40.079Z,12.30
2017-11-23T13:55:08.242Z,12.30
2017-11-23T13:57:36.379Z,12.40
2017-11-23T14:00:04.542Z,12.40
2017-11-23T14:02:32.666Z,12.50
2017-11-23T14:05:00.829Z,12.60
2017-11-23T14:07:28.984Z,12.60
2017-11-23T14:09:57.139Z,12.60
2017-11-23T14:12:25.274Z,12.60
2017-11-23T14:14:53.437Z,12.60
2017-11-23T14:17:21.569Z,12.50
2017-11-23T14:19:49.727Z,12.40
2017-11-23T14:22:17.880Z,12.40
2017-11-23T14:24:46.061Z,12.30
2017-11-23T14:27:14.207Z,12.30
2017-11-23T14:29:42.384Z,12.30
2017-11-23T14:32:10.524Z,12.20
2017-11-23T14:34:38.715Z,12.30
2017-11-23T14:37:06.858Z,12.20
2017-11-23T14:39:35.018Z,12.20
2017-11-23T14:42:03.906Z,12.20
2017-11-23T14:44:32.053Z,12.20
2017-11-23T14:47:00.210Z,12.20
2017-11-23T14:49:28.335Z,12.30
2017-11-23T14:51:56.485Z,12.30
2017-11-23T14:54:24.611Z,12.30
2017-11-23T14:56:52.999Z,12.30
2017-11-23T14:59:21.198Z,12.20
2017-11-23T15:01:49.359Z,12.20
2017-11-23T15:04:17.496Z,12.20
2017-11-23T15:06:45.958Z,12.20
2017-11-23T15:09:14.884Z,12.20
2017-11-23T15:11:43.056Z,12.20
2017-11-23T15:14:11.399Z,12.20
2017-11-23T15:16:40.434Z,12.20
2017-11-23T15:19:08.690Z,12.20
2017-11-23T15:21:36.842Z,12.20
2017-11-23T15:24:05.732Z,12.20
2017-11-23T15:26:33.900Z,12.20
2017-11-23T15:29:03.068Z,12.20
2017-11-23T15:31:31.223Z,12.20
2017-11-23T15:33:59.351Z,12.30
2017-11-23T15:36:28.271Z,12.30
2017-11-23T15:38:56.394Z,12.30
2017-11-23T15:41:24.551Z,12.40
2017-11-23T15:43:52.674Z,12.30
2017-11-23T15:46:20.849Z,12.30
2017-11-23T15:48:48.980Z,12.40
2017-11-23T15:51:17.103Z,12.40
2017-11-23T15:53:45.255Z,12.40
2017-11-23T15:56:13.387Z,12.40
2017-11-23T15:58:41.551Z,12.40
2017-11-23T16:01:09.691Z,12.40
2017-11-23T16:03:37.851Z,12.40
2017-11-23T16:06:06.012Z,12.50
2017-11-23T16:08:34.171Z,12.50
2017-11-23T16:11:02.322Z,12.50
2017-11-23T16:13:30.611Z,12.50
2017-11-23T16:15:58.736Z,12.50
2017-11-23T16:18:26.896Z,12.50
2017-11-23T16:20:55.035Z,12.50
2017-11-23T16:23:23.190Z,12.50
2017-11-23T16:25:51.338Z,12.60
2017-11-23T16:28:19.495Z,12.60
2017-11-23T16:30:47.615Z,12.60
2017-11-23T16:33:15.780Z,12.60
2017-11-23T16:35:43.910Z,12.70
2017-11-23T16:41:25.399Z,12.70
2017-11-23T16:43:54.474Z,12.70
2017-11-23T16:46:40.395Z,12.70
2017-11-23T16:49:14.864Z,12.70
2017-11-23T16:51:57.602Z,12.60
2017-11-23T16:54:31.489Z,12.60
2017-11-23T16:57:06.146Z,12.60
2017-11-23T16:59:40.110Z,12.60
2017-11-23T17:02:13.821Z,12.50
2017-11-23T17:04:47.545Z,12.50
2017-11-23T17:07:21.277Z,12.50
2017-11-23T17:09:53.121Z,12.50
2017-11-23T17:12:37.058Z,12.40
2017-11-23T17:15:20.931Z,12.40
2017-11-23T17:17:49.064Z,12.40
2017-11-23T17:20:17.231Z,12.30
2017-11-23T17:22:45.376Z,12.30
2017-11-23T17:25:13.540Z,12.30
2017-11-23T17:27:41.672Z,12.30
2017-11-23T17:30:09.835Z,12.40
2017-11-23T17:32:38.664Z,12.30
2017-11-23T17:35:06.840Z,12.30
2017-11-23T17:37:35.774Z,12.20
2017-11-23T17:40:04.792Z,12.20
2017-11-23T17:42:33.678Z,12.20
2017-11-23T17:45:01.981Z,12.10
2017-11-23T17:47:30.157Z,12.20
2017-11-23T17:49:58.412Z,12.10
2017-11-23T17:52:26.705Z,12.10
2017-11-23T17:54:55.308Z,12.10
2017-11-23T17:57:23.845Z,12.10
2017-11-23T17:59:52.144Z,12.00
2017-11-23T18:02:20.678Z,12.00
2017-11-23T18:04:49.537Z,12.00
2017-11-23T18:07:17.737Z,12.00
2017-11-23T18:09:45.915Z,12.00
2017-11-23T18:12:14.129Z,11.90
2017-11-23T18:14:43.005Z,11.90
2017-11-23T18:17:11.886Z,11.90
2017-11-23T18:19:40.062Z,11.80
2017-11-23T18:22:08.233Z,11.80
2017-11-23T18:24:36.412Z,11.90
2017-11-23T18:27:04.581Z,11.90
2017-11-23T18:29:33.108Z,11.90
2017-11-23T18:32:01.773Z,11.90
2017-11-23T18:34:31.138Z,12.00
2017-11-23T18:36:59.754Z,12.00
2017-11-23T18:39:28.543Z,12.00
2017-11-23T18:41:57.121Z,12.00
2017-11-23T18:44:25.815Z,12.00
2017-11-23T18:46:55.103Z,12.10
2017-11-23T18:49:24.804Z,12.10
2017-11-23T18:51:53.389Z,12.10
2017-11-23T18:54:22.077Z,12.10
2017-11-23T18:56:50.932Z,12.10
2017-11-23T18:59:19.621Z,12.10
2017-11-23T19:01:48.350Z,12.10
2017-11-23T19:04:17.016Z,12.10
2017-11-23T19:06:45.518Z,12.10
2017-11-23T19:09:14.140Z,12.10
2017-11-23T19:11:43.293Z,12.10
2017-11-23T19:14:11.936Z,12.10
2017-11-23T19:16:40.510Z,12.10
2017-11-23T19:19:08.844Z,12.10
2017-11-23T19:21:37.023Z,12.20
2017-11-23T19:24:05.161Z,12.20
2017-11-23T19:26:33.408Z,12.20
2017-11-23T19:29:01.567Z,12.30
2017-11-23T19:31:29.728Z,12.40
2017-11-23T19:33:57.888Z,12.40
2017-11-23T19:36:26.083Z,12.40
2017-11-23T19:38:54.217Z,12.50
2017-11-23T19:41:22.444Z,12.50
2017-11-23T19:43:51.728Z,12.60
2017-11-23T19:46:20.741Z,12.70
2017-11-23T19:48:50.229Z,12.70
2017-11-23T19:51:18.362Z,12.70
2017-11-23T19:53:46.514Z,12.70
2017-11-23T19:56:14.665Z,12.70
2017-11-23T19:58:43.599Z,12.70
2017-11-23T20:01:11.743Z,12.70
2017-11-23T20:03:39.910Z,12.80
2017-11-23T20:06:08.039Z,12.70
2017-11-23T20:08:36.239Z,12.70
2017-11-23T20:11:05.134Z,12.70
2017-11-23T20:13:34.062Z,12.60
2017-11-23T20:16:02.211Z,12.60
2017-11-23T20:18:31.130Z,12.60
2017-11-23T20:20:59.287Z,12.60
2017-11-23T20:23:27.452Z,12.50
2017-11-23T20:25:55.592Z,12.40
2017-11-23T20:28:23.762Z,12.30
2017-11-23T20:30:51.907Z,12.20
2017-11-23T20:33:20.088Z,12.10
2017-11-23T20:35:48.323Z,12.00
2017-11-23T20:38:16.515Z,11.90
2017-11-23T20:40:44.718Z,11.80
2017-11-23T20:43:12.884Z,11.70
2017-11-23T20:45:41.018Z,11.60
2017-11-23T20:48:09.215Z,11.50
2017-11-23T20:50:37.394Z,11.40
2017-11-23T20:53:05.542Z,11.40
2017-11-23T20:55:33.703Z,11.40
2017-11-23T20:58:01.835Z,11.40
2017-11-23T21:00:30.033Z,11.30
2017-11-23T21:02:58.158Z,11.30
2017-11-23T21:05:26.309Z,11.20
2017-11-23T21:07:54.450Z,11.20
2017-11-23T21:10:22.609Z,11.10
2017-11-23T21:12:50.738Z,11.10
2017-11-23T21:15:18.894Z,11.00
2017-11-23T21:17:47.045Z,11.00
2017-11-23T21:20:15.221Z,10.90
2017-11-23T21:22:43.360Z,10.80
2017-11-23T21:25:11.540Z,10.80
2017-11-23T21:27:39.684Z,10.70
2017-11-23T21:30:07.844Z,10.60
2017-11-23T21:32:36.011Z,10.50
2017-11-23T21:35:04.212Z,10.40
2017-11-23T21:37:32.347Z,10.30
2017-11-23T21:40:00.543Z,10.20
2017-11-23T21:42:28.691Z,10.00
2017-11-23T21:44:57.611Z,9.80
2017-11-23T21:47:25.745Z,9.80
2017-11-23T21:49:53.903Z,9.70
2017-11-23T21:52:22.029Z,9.50
2017-11-23T21:54:50.176Z,9.50
2017-11-23T21:57:18.315Z,9.40
2017-11-23T21:59:46.482Z,9.40
2017-11-23T22:02:14.603Z,9.30
2017-11-23T22:04:42.778Z,9.20
2017-11-23T22:07:10.926Z,9.10
2017-11-23T22:09:39.060Z,9.10
2017-11-23T22:12:07.256Z,9.00
2017-11-23T22:14:35.421Z,9.00
2017-11-23T22:17:03.574Z,8.90
2017-11-23T22:19:31.708Z,8.80
2017-11-23T22:21:59.871Z,8.70
2017-11-23T22:24:28.017Z,8.70
2017-11-23T22:26:56.173Z,8.60
2017-11-23T22:29:24.326Z,8.50
2017-11-23T22:31:52.475Z,8.50
2017-11-23T22:34:20.664Z,8.50
2017-11-23T22:36:49.589Z,8.50
2017-11-23T22:39:17.751Z,8.50
2017-11-23T22:41:45.908Z,8.50
2017-11-23T22:44:14.071Z,8.50
2017-11-23T22:46:42.223Z,8.50
2017-11-23T22:49:10.367Z,8.50
2017-11-23T22:51:38.563Z,8.40
2017-11-23T22:54:06.721Z,8.40
2017-11-23T22:56:34.901Z,8.40
2017-11-23T22:59:03.045Z,8.40
2017-11-23T23:01:31.257Z,8.40
2017-11-23T23:03:59.391Z,8.40
2017-11-23T23:06:27.566Z,8.30
2017-11-23T23:08:55.690Z,8.20
2017-11-23T23:11:23.867Z,8.20
2017-11-23T23:13:52.000Z,8.10
2017-11-23T23:16:20.156Z,8.10
2017-11-23T23:18:48.291Z,8.00
2017-11-23T23:21:16.448Z,8.00
2017-11-23T23:23:44.575Z,8.00
2017-11-23T23:26:12.732Z,7.90
2017-11-23T23:28:40.872Z,7.90
2017-11-23T23:31:09.026Z,7.80
2017-11-23T23:33:37.155Z,7.80
2017-11-23T23:36:05.303Z,7.80
2017-11-23T23:38:33.454Z,7.70
2017-11-23T23:41:01.581Z,7.80
2017-11-23T23:43:29.740Z,7.80
2017-11-23T23:45:58.622Z,7.70
2017-11-23T23:48:26.763Z,7.70
2017-11-23T23:50:54.888Z,7.70
2017-11-23T23:53:23.049Z,7.70
2017-11-23T23:55:51.176Z,7.70
2017-11-23T23:58:19.340Z,7.70
